Portada
METAR-TAF:

METAR-TAF

Aeroports :

Ilo, Perú

latitud: 17-41-45S, longitud: 071-20-35W, altitud: 22 m

METAR: manca

Hora: 22:53 (03:53 UTC)

Pronòstic

L'informe es va fer fa 10 hores i 43 minuts, a les 17:10 UTC
Pronòstic vàlid del 22 a les 18 UTC al 23 a les 18 UTC
Vent 10 kt del Sud
Visibilitat 10 km o més
sense núvols per sota de 1500 mi sense presència de cumulonimbus.
A partir de les 22 a les 2330 UTC
Vent 5 kt del Sud/Sud-Est
Visibilitat 10 km o més
Cel cobert a una alçada de 2200 ft

TAF: SPLO 221710Z 2218/2318 19010KT CAVOK TX22/2219Z TN16/2311Z FM222330 16005KT 9999 OVC022

Observacions i pronòstics meteorològics de més de 4000 aeroports (METAR i TAF).

Les estacions disponibles són els punts grocs i vermells al mapa.

Posi el ratolí al punt desitjat per veure el nom de l'estació.

Feu clic per veure les observacions i els pronòstics meteorològics.

Per canviar el mapa: feu clic els botons verds amb una creu de color negre per apropar; al botó verd amb un guió per allunyar la imatge; o en les fletxes verdes per a mapes adjacents.


METAR-TAF: